sensor_id;sensor_type;location;lat;lon;timestamp;pressure;altitude;pressure_sealevel;temperature;humidity
31717;BME280;18301;51.076;17.046;2023-01-10T00:03:55;99330.22;;;7.60;80.20
31717;BME280;18301;51.076;17.046;2023-01-10T00:08:56;99336.31;;;7.63;79.83
31717;BME280;18301;51.076;17.046;2023-01-10T00:13:58;99332.78;;;7.62;79.52
31717;BME280;18301;51.076;17.046;2023-01-10T00:19:00;99333.91;;;7.71;79.01
31717;BME280;18301;51.076;17.046;2023-01-10T00:24:01;99346.59;;;7.57;78.86
31717;BME280;18301;51.076;17.046;2023-01-10T00:29:18;99350.47;;;7.42;79.63
31717;BME280;18301;51.076;17.046;2023-01-10T00:34:20;99350.47;;;7.53;79.38
31717;BME280;18301;51.076;17.046;2023-01-10T00:39:22;99353.88;;;7.55;79.08
31717;BME280;18301;51.076;17.046;2023-01-10T00:44:27;99354.75;;;7.56;79.08
31717;BME280;18301;51.076;17.046;2023-01-10T00:49:28;99366.69;;;7.63;79.25
31717;BME280;18301;51.076;17.046;2023-01-10T00:54:30;99358.53;;;7.65;79.00
31717;BME280;18301;51.076;17.046;2023-01-10T00:59:31;99374.66;;;7.65;78.87
31717;BME280;18301;51.076;17.046;2023-01-10T01:04:33;99381.97;;;7.63;78.94
31717;BME280;18301;51.076;17.046;2023-01-10T01:09:35;99391.59;;;7.65;79.35
31717;BME280;18301;51.076;17.046;2023-01-10T01:14:56;99394.16;;;7.55;78.52
31717;BME280;18301;51.076;17.046;2023-01-10T01:19:58;99400.28;;;7.57;78.87
31717;BME280;18301;51.076;17.046;2023-01-10T01:24:59;99400.50;;;7.54;78.58
31717;BME280;18301;51.076;17.046;2023-01-10T01:30:01;99407.59;;;7.55;79.04
31717;BME280;18301;51.076;17.046;2023-01-10T01:35:03;99402.22;;;7.55;78.92
31717;BME280;18301;51.076;17.046;2023-01-10T01:40:06;99409.53;;;7.53;78.60
31717;BME280;18301;51.076;17.046;2023-01-10T01:55:37;99416.81;;;7.40;79.06
31717;BME280;18301;51.076;17.046;2023-01-10T02:00:39;99421.19;;;7.41;79.11
31717;BME280;18301;51.076;17.046;2023-01-10T02:05:42;99431.56;;;7.34;78.91
31717;BME280;18301;51.076;17.046;2023-01-10T02:11:10;99439.84;;;7.07;79.70
31717;BME280;18301;51.076;17.046;2023-01-10T02:16:12;99435.44;;;7.30;79.03
31717;BME280;18301;51.076;17.046;2023-01-10T02:42:57;99477.56;;;7.17;79.18
31717;BME280;18301;51.076;17.046;2023-01-10T02:48:01;99479.13;;;7.08;79.63
31717;BME280;18301;51.076;17.046;2023-01-10T02:53:13;99483.13;;;7.27;79.32
31717;BME280;18301;51.076;17.046;2023-01-10T02:58:31;99499.47;;;7.24;78.86
31717;BME280;18301;51.076;17.046;2023-01-10T03:14:27;99527.78;;;7.28;79.55
31717;BME280;18301;51.076;17.046;2023-01-10T03:19:34;99533.59;;;7.22;80.04
31717;BME280;18301;51.076;17.046;2023-01-10T03:24:47;99541.72;;;7.33;79.36
31717;BME280;18301;51.076;17.046;2023-01-10T03:30:21;99551.47;;;7.34;79.08
31717;BME280;18301;51.076;17.046;2023-01-10T03:35:37;99566.31;;;7.27;79.45
31717;BME280;18301;51.076;17.046;2023-01-10T03:46:06;99565.03;;;7.20;79.75
31717;BME280;18301;51.076;17.046;2023-01-10T03:51:10;99578.63;;;7.29;79.63
31717;BME280;18301;51.076;17.046;2023-01-10T03:56:13;99595.63;;;7.30;79.19
31717;BME280;18301;51.076;17.046;2023-01-10T04:01:15;99589.63;;;7.13;79.73
31717;BME280;18301;51.076;17.046;2023-01-10T04:06:17;99603.75;;;7.28;79.07
31717;BME280;18301;51.076;17.046;2023-01-10T04:11:20;99595.94;;;7.25;79.45
31717;BME280;18301;51.076;17.046;2023-01-10T04:16:21;99608.59;;;7.36;78.63
31717;BME280;18301;51.076;17.046;2023-01-10T04:21:23;99619.53;;;7.33;78.54
31717;BME280;18301;51.076;17.046;2023-01-10T04:26:24;99624.69;;;7.23;78.84
31717;BME280;18301;51.076;17.046;2023-01-10T04:31:26;99637.47;;;7.20;79.56
31717;BME280;18301;51.076;17.046;2023-01-10T04:36:27;99642.25;;;7.03;79.92
31717;BME280;18301;51.076;17.046;2023-01-10T04:41:30;99660.25;;;7.01;80.16
31717;BME280;18301;51.076;17.046;2023-01-10T04:46:32;99674.75;;;7.11;79.88
31717;BME280;18301;51.076;17.046;2023-01-10T04:51:33;99690.09;;;7.09;80.02
31717;BME280;18301;51.076;17.046;2023-01-10T04:56:34;99698.25;;;6.82;80.99
31717;BME280;18301;51.076;17.046;2023-01-10T05:01:36;99706.28;;;6.95;80.99
31717;BME280;18301;51.076;17.046;2023-01-10T05:06:39;99713.06;;;7.01;80.61
31717;BME280;18301;51.076;17.046;2023-01-10T05:11:41;99726.59;;;6.99;80.73
31717;BME280;18301;51.076;17.046;2023-01-10T05:16:42;99718.41;;;7.26;80.25
31717;BME280;18301;51.076;17.046;2023-01-10T05:21:43;99737.31;;;7.12;80.26
31717;BME280;18301;51.076;17.046;2023-01-10T05:26:45;99737.09;;;7.02;80.99
31717;BME280;18301;51.076;17.046;2023-01-10T05:31:49;99745.03;;;7.17;80.50
31717;BME280;18301;51.076;17.046;2023-01-10T05:36:51;99751.59;;;7.00;80.79
31717;BME280;18301;51.076;17.046;2023-01-10T05:41:52;99760.69;;;6.97;81.23
31717;BME280;18301;51.076;17.046;2023-01-10T05:46:54;99769.72;;;7.09;80.71
31717;BME280;18301;51.076;17.046;2023-01-10T05:51:55;99775.41;;;7.04;81.39
31717;BME280;18301;51.076;17.046;2023-01-10T05:56:57;99785.81;;;6.96;80.84
31717;BME280;18301;51.076;17.046;2023-01-10T06:01:58;99790.53;;;7.05;81.27
31717;BME280;18301;51.076;17.046;2023-01-10T06:07:00;99803.81;;;6.94;81.33
31717;BME280;18301;51.076;17.046;2023-01-10T06:12:01;99814.66;;;6.92;81.39
31717;BME280;18301;51.076;17.046;2023-01-10T06:17:03;99823.50;;;6.67;82.21
31717;BME280;18301;51.076;17.046;2023-01-10T06:22:08;99833.19;;;6.83;81.89
31717;BME280;18301;51.076;17.046;2023-01-10T06:27:10;99842.47;;;7.04;80.78
31717;BME280;18301;51.076;17.046;2023-01-10T06:32:11;99854.94;;;7.05;80.97
31717;BME280;18301;51.076;17.046;2023-01-10T06:37:13;99865.94;;;6.88;81.53
31717;BME280;18301;51.076;17.046;2023-01-10T06:42:14;99869.22;;;6.79;81.58
31717;BME280;18301;51.076;17.046;2023-01-10T06:47:16;99887.78;;;6.82;82.14
31717;BME280;18301;51.076;17.046;2023-01-10T06:52:17;99897.16;;;6.89;81.64
31717;BME280;18301;51.076;17.046;2023-01-10T06:57:19;99911.47;;;6.75;82.18
31717;BME280;18301;51.076;17.046;2023-01-10T07:02:21;99916.06;;;7.00;81.66
31717;BME280;18301;51.076;17.046;2023-01-10T07:07:22;99931.06;;;6.90;82.04
31717;BME280;18301;51.076;17.046;2023-01-10T07:12:24;99941.72;;;7.04;81.24
31717;BME280;18301;51.076;17.046;2023-01-10T07:17:25;99951.31;;;7.08;81.09
31717;BME280;18301;51.076;17.046;2023-01-10T07:22:27;99954.91;;;6.95;81.25
31717;BME280;18301;51.076;17.046;2023-01-10T07:27:31;99962.81;;;6.69;82.70
31717;BME280;18301;51.076;17.046;2023-01-10T07:32:33;99969.38;;;6.92;81.83
31717;BME280;18301;51.076;17.046;2023-01-10T07:37:34;99973.19;;;6.61;83.67
31717;BME280;18301;51.076;17.046;2023-01-10T07:42:35;99988.13;;;6.92;82.18
31717;BME280;18301;51.076;17.046;2023-01-10T07:47:37;100001.59;;;6.78;82.66
31717;BME280;18301;51.076;17.046;2023-01-10T07:52:39;100001.63;;;6.63;83.87
31717;BME280;18301;51.076;17.046;2023-01-10T07:57:40;100007.63;;;6.81;83.11
31717;BME280;18301;51.076;17.046;2023-01-10T08:02:42;100024.19;;;6.88;82.73
31717;BME280;18301;51.076;17.046;2023-01-10T08:07:43;100023.97;;;6.91;82.68
31717;BME280;18301;51.076;17.046;2023-01-10T08:12:45;100029.22;;;6.92;83.03
31717;BME280;18301;51.076;17.046;2023-01-10T08:17:48;100043.63;;;6.77;83.50
31717;BME280;18301;51.076;17.046;2023-01-10T08:22:49;100041.91;;;6.76;84.05
31717;BME280;18301;51.076;17.046;2023-01-10T08:27:51;100062.22;;;6.66;84.21
31717;BME280;18301;51.076;17.046;2023-01-10T08:32:53;100065.00;;;6.93;83.20
31717;BME280;18301;51.076;17.046;2023-01-10T08:37:58;100051.00;;;6.74;84.00
31717;BME280;18301;51.076;17.046;2023-01-10T08:43:06;100068.81;;;6.89;83.08
31717;BME280;18301;51.076;17.046;2023-01-10T08:48:08;100065.19;;;6.76;84.08
31717;BME280;18301;51.076;17.046;2023-01-10T08:53:10;100078.56;;;7.04;82.60
31717;BME280;18301;51.076;17.046;2023-01-10T08:58:14;100087.97;;;6.97;83.05
31717;BME280;18301;51.076;17.046;2023-01-10T09:03:15;100094.44;;;7.07;82.55
31717;BME280;18301;51.076;17.046;2023-01-10T09:08:17;100099.03;;;7.20;82.65
31717;BME280;18301;51.076;17.046;2023-01-10T09:13:19;100094.72;;;7.58;81.21
31717;BME280;18301;51.076;17.046;2023-01-10T09:18:20;100106.81;;;7.10;82.09
31717;BME280;18301;51.076;17.046;2023-01-10T09:23:22;100108.44;;;7.12;82.00
31717;BME280;18301;51.076;17.046;2023-01-10T09:28:23;100122.84;;;7.11;81.91
31717;BME280;18301;51.076;17.046;2023-01-10T09:33:25;100132.19;;;7.33;81.00
31717;BME280;18301;51.076;17.046;2023-01-10T09:38:45;100140.00;;;7.50;80.55
31717;BME280;18301;51.076;17.046;2023-01-10T09:49:12;100155.94;;;7.39;81.03
31717;BME280;18301;51.076;17.046;2023-01-10T09:54:21;100162.38;;;7.22;81.65
31717;BME280;18301;51.076;17.046;2023-01-10T09:59:25;100165.41;;;7.45;81.22
31717;BME280;18301;51.076;17.046;2023-01-10T10:04:35;100174.53;;;7.42;81.66
31717;BME280;18301;51.076;17.046;2023-01-10T10:09:38;100174.53;;;7.42;81.96
31717;BME280;18301;51.076;17.046;2023-01-10T10:25:31;100193.44;;;7.82;80.85
31717;BME280;18301;51.076;17.046;2023-01-10T10:31:03;100199.66;;;7.82;80.39
31717;BME280;18301;51.076;17.046;2023-01-10T10:36:26;100196.47;;;7.90;80.17
31717;BME280;18301;51.076;17.046;2023-01-10T10:41:42;100188.13;;;7.95;80.66
31717;BME280;18301;51.076;17.046;2023-01-10T10:46:44;100205.53;;;7.75;80.79
31717;BME280;18301;51.076;17.046;2023-01-10T10:51:51;100206.59;;;7.99;80.93
31717;BME280;18301;51.076;17.046;2023-01-10T10:56:53;100197.63;;;8.13;79.91
31717;BME280;18301;51.076;17.046;2023-01-10T11:01:56;100200.22;;;8.15;80.57
31717;BME280;18301;51.076;17.046;2023-01-10T11:06:58;100197.78;;;7.97;80.43
31717;BME280;18301;51.076;17.046;2023-01-10T11:12:02;100193.38;;;7.96;81.06
31717;BME280;18301;51.076;17.046;2023-01-10T11:17:22;100207.06;;;8.06;79.99
31717;BME280;18301;51.076;17.046;2023-01-10T11:22:38;100198.25;;;7.77;81.50
31717;BME280;18301;51.076;17.046;2023-01-10T11:27:50;100202.34;;;8.10;80.40
31717;BME280;18301;51.076;17.046;2023-01-10T11:32:59;100211.97;;;7.99;80.26
31717;BME280;18301;51.076;17.046;2023-01-10T11:43:40;100228.50;;;7.93;80.31
31717;BME280;18301;51.076;17.046;2023-01-10T11:48:43;100218.56;;;8.08;80.08
31717;BME280;18301;51.076;17.046;2023-01-10T11:54:09;100237.38;;;7.81;81.38
31717;BME280;18301;51.076;17.046;2023-01-10T11:59:14;100245.00;;;8.01;81.01
31717;BME280;18301;51.076;17.046;2023-01-10T12:04:18;100241.28;;;8.17;80.17
31717;BME280;18301;51.076;17.046;2023-01-10T12:09:39;100261.47;;;8.10;79.97
31717;BME280;18301;51.076;17.046;2023-01-10T12:14:42;100270.91;;;8.02;80.50
31717;BME280;18301;51.076;17.046;2023-01-10T12:19:44;100268.03;;;7.91;81.03
31717;BME280;18301;51.076;17.046;2023-01-10T12:24:48;100270.72;;;7.91;81.13
31717;BME280;18301;51.076;17.046;2023-01-10T12:30:06;100264.91;;;8.12;80.75
31717;BME280;18301;51.076;17.046;2023-01-10T12:35:17;100274.56;;;7.87;81.00
31717;BME280;18301;51.076;17.046;2023-01-10T12:40:30;100291.13;;;8.08;80.39
31717;BME280;18301;51.076;17.046;2023-01-10T12:45:52;100295.06;;;8.02;81.12
31717;BME280;18301;51.076;17.046;2023-01-10T12:51:00;100292.84;;;7.82;82.21
31717;BME280;18301;51.076;17.046;2023-01-10T12:56:08;100312.09;;;8.30;80.48
31717;BME280;18301;51.076;17.046;2023-01-10T13:01:15;100314.31;;;7.82;82.35
31717;BME280;18301;51.076;17.046;2023-01-10T13:06:29;100330.28;;;8.12;81.37
31717;BME280;18301;51.076;17.046;2023-01-10T13:11:36;100317.41;;;8.17;80.98
31717;BME280;18301;51.076;17.046;2023-01-10T13:16:49;100322.34;;;7.96;81.23
31717;BME280;18301;51.076;17.046;2023-01-10T13:22:32;100332.88;;;8.14;80.03
31717;BME280;18301;51.076;17.046;2023-01-10T13:27:35;100337.34;;;7.72;81.75
31717;BME280;18301;51.076;17.046;2023-01-10T13:32:36;100353.34;;;7.88;81.83
31717;BME280;18301;51.076;17.046;2023-01-10T13:37:41;100361.03;;;7.65;83.18
31717;BME280;18301;51.076;17.046;2023-01-10T13:42:43;100368.34;;;7.92;81.96
31717;BME280;18301;51.076;17.046;2023-01-10T13:48:03;100367.28;;;7.80;82.45
31717;BME280;18301;51.076;17.046;2023-01-10T14:03:35;100392.63;;;7.76;83.61
31717;BME280;18301;51.076;17.046;2023-01-10T14:08:38;100407.97;;;7.74;83.57
31717;BME280;18301;51.076;17.046;2023-01-10T14:13:50;100413.69;;;7.53;85.22
31717;BME280;18301;51.076;17.046;2023-01-10T14:18:53;100411.97;;;7.52;85.91
31717;BME280;18301;51.076;17.046;2023-01-10T14:23:56;100416.66;;;7.49;86.45
31717;BME280;18301;51.076;17.046;2023-01-10T14:28:59;100423.84;;;7.63;85.46
31717;BME280;18301;51.076;17.046;2023-01-10T14:34:03;100431.91;;;7.48;85.95
31717;BME280;18301;51.076;17.046;2023-01-10T14:39:06;100425.22;;;7.70;85.89
31717;BME280;18301;51.076;17.046;2023-01-10T14:44:21;100428.25;;;7.49;86.31
31717;BME280;18301;51.076;17.046;2023-01-10T14:49:32;100431.06;;;7.62;85.49
31717;BME280;18301;51.076;17.046;2023-01-10T14:54:35;100429.16;;;7.64;84.82
31717;BME280;18301;51.076;17.046;2023-01-10T14:59:36;100442.00;;;7.59;85.01
31717;BME280;18301;51.076;17.046;2023-01-10T15:04:48;100449.78;;;7.64;84.76
31717;BME280;18301;51.076;17.046;2023-01-10T15:09:54;100460.41;;;7.65;84.67
31717;BME280;18301;51.076;17.046;2023-01-10T15:15:06;100460.31;;;7.52;85.18
31717;BME280;18301;51.076;17.046;2023-01-10T15:20:15;100471.78;;;7.40;86.58
31717;BME280;18301;51.076;17.046;2023-01-10T15:30:20;100476.53;;;7.65;85.97
31717;BME280;18301;51.076;17.046;2023-01-10T15:35:25;100484.31;;;7.70;86.40
31717;BME280;18301;51.076;17.046;2023-01-10T15:40:37;100489.66;;;7.55;87.63
31717;BME280;18301;51.076;17.046;2023-01-10T15:45:40;100487.00;;;7.70;87.00
31717;BME280;18301;51.076;17.046;2023-01-10T15:50:56;100498.25;;;7.46;87.62
31717;BME280;18301;51.076;17.046;2023-01-10T15:56:10;100497.53;;;7.58;87.73
31717;BME280;18301;51.076;17.046;2023-01-10T16:01:15;100499.78;;;7.50;88.02
31717;BME280;18301;51.076;17.046;2023-01-10T16:06:28;100512.09;;;7.54;88.15
31717;BME280;18301;51.076;17.046;2023-01-10T16:11:47;100510.59;;;7.65;87.77
31717;BME280;18301;51.076;17.046;2023-01-10T16:17:08;100519.19;;;7.55;87.54
31717;BME280;18301;51.076;17.046;2023-01-10T16:22:15;100526.47;;;7.53;86.88
31717;BME280;18301;51.076;17.046;2023-01-10T16:27:18;100516.75;;;7.67;86.74
31717;BME280;18301;51.076;17.046;2023-01-10T16:32:19;100523.91;;;7.66;85.98
31717;BME280;18301;51.076;17.046;2023-01-10T16:37:21;100529.06;;;7.55;86.28
31717;BME280;18301;51.076;17.046;2023-01-10T16:42:22;100535.19;;;7.57;85.42
31717;BME280;18301;51.076;17.046;2023-01-10T16:47:42;100535.72;;;7.64;85.02
31717;BME280;18301;51.076;17.046;2023-01-10T16:52:43;100541.22;;;7.46;85.86
31717;BME280;18301;51.076;17.046;2023-01-10T16:57:45;100533.84;;;7.50;85.88
31717;BME280;18301;51.076;17.046;2023-01-10T17:02:48;100552.63;;;7.50;86.13
31717;BME280;18301;51.076;17.046;2023-01-10T17:07:49;100553.81;;;7.60;85.81
31717;BME280;18301;51.076;17.046;2023-01-10T17:12:51;100563.88;;;7.56;86.17
31717;BME280;18301;51.076;17.046;2023-01-10T17:17:52;100573.09;;;7.52;86.07
31717;BME280;18301;51.076;17.046;2023-01-10T17:22:54;100584.69;;;7.53;86.08
31717;BME280;18301;51.076;17.046;2023-01-10T17:27:55;100587.84;;;7.45;86.25
31717;BME280;18301;51.076;17.046;2023-01-10T17:32:57;100595.78;;;7.47;86.47
31717;BME280;18301;51.076;17.046;2023-01-10T17:37:58;100595.94;;;7.59;84.89
31717;BME280;18301;51.076;17.046;2023-01-10T17:43:00;100599.09;;;7.36;84.90
31717;BME280;18301;51.076;17.046;2023-01-10T17:48:01;100590.25;;;7.34;85.24
31717;BME280;18301;51.076;17.046;2023-01-10T17:53:03;100579.19;;;7.08;84.96
31717;BME280;18301;51.076;17.046;2023-01-10T17:58:05;100588.53;;;7.01;84.70
31717;BME280;18301;51.076;17.046;2023-01-10T18:03:07;100600.66;;;7.08;83.97
31717;BME280;18301;51.076;17.046;2023-01-10T18:08:08;100612.09;;;7.28;82.98
31717;BME280;18301;51.076;17.046;2023-01-10T18:13:11;100606.19;;;7.05;83.79
31717;BME280;18301;51.076;17.046;2023-01-10T18:18:13;100617.97;;;7.03;84.32
31717;BME280;18301;51.076;17.046;2023-01-10T18:23:15;100628.19;;;6.96;84.29
31717;BME280;18301;51.076;17.046;2023-01-10T18:28:23;100615.34;;;7.01;84.16
31717;BME280;18301;51.076;17.046;2023-01-10T18:33:41;100621.06;;;7.11;83.99
31717;BME280;18301;51.076;17.046;2023-01-10T18:38:43;100626.88;;;7.03;83.81
31717;BME280;18301;51.076;17.046;2023-01-10T18:43:45;100620.56;;;7.04;83.99
31717;BME280;18301;51.076;17.046;2023-01-10T18:48:47;100627.16;;;7.14;83.85
31717;BME280;18301;51.076;17.046;2023-01-10T18:53:51;100632.25;;;7.19;83.19
31717;BME280;18301;51.076;17.046;2023-01-10T18:58:54;100630.53;;;7.02;83.52
31717;BME280;18301;51.076;17.046;2023-01-10T19:03:56;100641.16;;;7.04;83.60
31717;BME280;18301;51.076;17.046;2023-01-10T19:08:57;100648.63;;;7.14;83.57
31717;BME280;18301;51.076;17.046;2023-01-10T19:13:58;100632.25;;;7.03;83.63
31717;BME280;18301;51.076;17.046;2023-01-10T19:19:06;100645.31;;;7.09;83.24
31717;BME280;18301;51.076;17.046;2023-01-10T19:24:27;100639.16;;;7.07;83.59
31717;BME280;18301;51.076;17.046;2023-01-10T19:29:29;100650.41;;;6.98;82.84
31717;BME280;18301;51.076;17.046;2023-01-10T19:34:31;100658.28;;;7.01;83.56
31717;BME280;18301;51.076;17.046;2023-01-10T19:39:33;100647.22;;;7.07;83.61
31717;BME280;18301;51.076;17.046;2023-01-10T19:44:35;100648.78;;;7.11;83.74
31717;BME280;18301;51.076;17.046;2023-01-10T19:49:36;100639.44;;;7.19;83.72
31717;BME280;18301;51.076;17.046;2023-01-10T19:54:38;100636.31;;;7.10;83.44
31717;BME280;18301;51.076;17.046;2023-01-10T19:59:39;100642.53;;;6.95;82.72
31717;BME280;18301;51.076;17.046;2023-01-10T20:04:41;100648.25;;;7.05;83.54
31717;BME280;18301;51.076;17.046;2023-01-10T20:09:43;100639.78;;;7.12;83.47
31717;BME280;18301;51.076;17.046;2023-01-10T20:14:44;100657.44;;;7.17;83.61
31717;BME280;18301;51.076;17.046;2023-01-10T20:19:46;100658.13;;;7.20;83.59
31717;BME280;18301;51.076;17.046;2023-01-10T20:24:48;100662.63;;;7.20;83.19
31717;BME280;18301;51.076;17.046;2023-01-10T20:29:50;100655.72;;;7.15;82.99
31717;BME280;18301;51.076;17.046;2023-01-10T20:34:51;100652.06;;;7.17;82.76
31717;BME280;18301;51.076;17.046;2023-01-10T20:39:53;100652.06;;;7.17;82.95
31717;BME280;18301;51.076;17.046;2023-01-10T20:44:55;100650.19;;;7.19;82.80
31717;BME280;18301;51.076;17.046;2023-01-10T20:49:56;100647.84;;;7.12;82.82
31717;BME280;18301;51.076;17.046;2023-01-10T20:54:58;100651.91;;;7.20;82.88
31717;BME280;18301;51.076;17.046;2023-01-10T20:59:59;100645.31;;;7.09;82.77
31717;BME280;18301;51.076;17.046;2023-01-10T21:05:01;100635.78;;;7.04;82.91
31717;BME280;18301;51.076;17.046;2023-01-10T21:10:02;100636.47;;;7.07;82.80
31717;BME280;18301;51.076;17.046;2023-01-10T21:15:04;100636.66;;;7.04;83.14
31717;BME280;18301;51.076;17.046;2023-01-10T21:20:07;100632.69;;;7.11;82.92
31717;BME280;18301;51.076;17.046;2023-01-10T21:25:08;100639.00;;;7.10;83.06
31717;BME280;18301;51.076;17.046;2023-01-10T21:30:10;100636.56;;;7.06;83.31
31717;BME280;18301;51.076;17.046;2023-01-10T21:35:12;100638.06;;;7.11;83.42
31717;BME280;18301;51.076;17.046;2023-01-10T21:40:14;100636.13;;;7.13;83.35
31717;BME280;18301;51.076;17.046;2023-01-10T21:45:15;100645.78;;;7.18;83.22
31717;BME280;18301;51.076;17.046;2023-01-10T21:50:18;100644.81;;;7.19;83.30
31717;BME280;18301;51.076;17.046;2023-01-10T21:55:22;100646.53;;;7.20;83.33
31717;BME280;18301;51.076;17.046;2023-01-10T22:00:24;100630.78;;;7.13;83.35
31717;BME280;18301;51.076;17.046;2023-01-10T22:05:26;100636.75;;;7.19;83.24
31717;BME280;18301;51.076;17.046;2023-01-10T22:10:27;100637.72;;;7.18;83.34
31717;BME280;18301;51.076;17.046;2023-01-10T22:15:30;100644.81;;;7.19;83.20
31717;BME280;18301;51.076;17.046;2023-01-10T22:20:32;100646.53;;;7.20;83.04
31717;BME280;18301;51.076;17.046;2023-01-10T22:25:33;100637.44;;;7.22;83.09
31717;BME280;18301;51.076;17.046;2023-01-10T22:30:35;100627.50;;;7.08;83.29
31717;BME280;18301;51.076;17.046;2023-01-10T22:35:36;100625.75;;;7.07;83.53
31717;BME280;18301;51.076;17.046;2023-01-10T22:40:38;100629.03;;;7.12;83.74
31717;BME280;18301;51.076;17.046;2023-01-10T22:45:40;100624.72;;;7.10;83.51
31717;BME280;18301;51.076;17.046;2023-01-10T22:50:47;100625.84;;;7.06;83.92
31717;BME280;18301;51.076;17.046;2023-01-10T22:55:49;100635.72;;;7.05;83.38
31717;BME280;18301;51.076;17.046;2023-01-10T23:00:50;100629.72;;;7.00;83.70
31717;BME280;18301;51.076;17.046;2023-01-10T23:06:10;100643.88;;;6.86;84.14
31717;BME280;18301;51.076;17.046;2023-01-10T23:11:14;100640.50;;;6.83;84.05
31717;BME280;18301;51.076;17.046;2023-01-10T23:16:19;100628.13;;;6.80;83.75
31717;BME280;18301;51.076;17.046;2023-01-10T23:21:23;100625.22;;;6.85;83.78
31717;BME280;18301;51.076;17.046;2023-01-10T23:26:25;100628.72;;;6.69;82.63
31717;BME280;18301;51.076;17.046;2023-01-10T23:31:26;100623.88;;;6.43;82.57
31717;BME280;18301;51.076;17.046;2023-01-10T23:36:30;100631.00;;;6.44;82.27
31717;BME280;18301;51.076;17.046;2023-01-10T23:41:31;100616.31;;;6.51;81.73
31717;BME280;18301;51.076;17.046;2023-01-10T23:46:33;100607.47;;;6.49;81.29
31717;BME280;18301;51.076;17.046;2023-01-10T23:51:34;100612.28;;;6.60;80.56
31717;BME280;18301;51.076;17.046;2023-01-10T23:56:37;100607.28;;;6.69;80.21
